Terminal Aerodrome Forecast
Issued by NWS Cleveland, OH

Home | Current Version | Previous Version | Text Only | Print | Product List | Glossary Off
Versions: 1 2 3 4 5 6 7 8 9 10 11 12 13 14 15 16 17 18 19 20 21 22 23 24 25 26

000
FTUS41 KCLE 131100
TAFYNG
TAF
KYNG 131137Z 1312/1412 00000KT P6SM BKN025 OVC035
     FM131900 30010G20KT P6SM BKN035
     FM132300 35005KT P6SM BKN050
     FM140000 00000KT P6SM SKC=

USA.gov is the U.S. government's official web portal to all federal, state and local government web resources and services.